الصفحة الرئيسية
METAR-TAF:

METAR-TAF

مطار :

Mount Gambier, أستراليا

دائرة عرض: 37-44-44S, خط طول: 140-47-07E, ارتفاع: 65 متر

مراقبة الطقس الحالي

تاريخ ووقت الإصدار 38 دقيقة قبل الساعة 19:00UTC
ريح 6 عقدة من الشمال الغربي
درجة الحرارة 11°درجة مئوية
الرطوبة 100%
ضغط 1023 hPa
الرؤية 10 كم أو أكثر
غيوم مفككة على ارتفاع 3800 قدم
ملبد بالغيوم على ارتفاع 4600 قدم

METAR: YMTG 171900Z AUTO 32006KT 9999 // BKN038 OVC046 11/11 Q1023

زمن: 05:08 (19:38 UTC)


TAF: مفقودة

أرصاد الطقس والتوقعات من أكثر من 4000 مطار (تقارير الطقس للمطار METAR والتنبؤ بالطقس بالمطارTAF).

المحطات المتاحة هي النقط الصفراء والحمراء على الخريطة.

حرك المؤشر فوق النقطة لمعرفة اسم المحطة.

ثم انقر لمعرفة أرصاد وتوقعات الطقس.

لتغيير الخارطة: اضغط على الأزرار الخضراء مع رمز الصليب الأسود للتكبير. على الزر الأخضر مع شرطة للتصغير، أو على الأسهم الخضراء للخرائط المجاورة.


METAR-TAF: